AirNav   Air Wisconsin Up To $57,000 Bonus
 
 1670 users online  

NY22 NYPD Air Operations Heliport (Floyd Bennett Field)
New York, New York, USA

GOING TO NEW YORK?


FAA INFORMATION EFFECTIVE 01 DECEMBER 2022

Location

FAA Identifier: NY22
Lat/Long: 40-35-25.2800N 073-52-54.5500W
40-35.421333N 073-52.909167W
40.5903556,-73.8818194
(estimated)
Elevation: 6 ft. / 2 m (estimated)
Variation: 13W (1985)
From city: 6 miles SE of NEW YORK, NY
Time zone: UTC -5 (UTC -4 during Daylight Saving Time)
Zip code: 11234

Heliport Operations

Heliport use: Private use. Permission required prior to landing
Activation date: 06/1940
Control tower: yes
ARTCC: NEW YORK CENTER
FSS: NEW YORK FLIGHT SERVICE STATION
Attendance: UNATNDD
Segmented circle: no
Lights: SS-SR

Heliport Communications

WX ASOS at JFK (6 nm NE): 128.725 (718-656-0956)
WX AWOS-3PT at JRB (9 nm NW): 128.175 (212-425-1534)
WX ASOS at LGA (11 nm N): PHONE 718-672-6317
WX ASOS at EWR (14 nm NW): PHONE 973-621-2892
WX AWOS-3 at LDJ (17 nm W): 124.025 (908-862-7383)
WX ASOS at TEB (18 nm NW): PHONE 201-393-0855
  • USCG OPNS ON FREQS 164.3 & 381.8. USCG FREQS NOT MANNED CONT.

Nearby radio navigation aids

VOR radial/distance  VOR name  Freq  Var
CRIr168/1.4CANARSIE VOR/DME112.3011W
JFKr255/5.6KENNEDY VOR/DME115.9012W
LGAr195/11.6LA GUARDIA VOR/DME113.1012W
TEBr163/17.5TETERBORO VOR/DME108.4011W
COLr048/21.0COLTS NECK VOR/DME115.4011W
DPKr257/28.9DEER PARK VOR/DME117.7012W
RBVr060/36.4ROBBINSVILLE VORTAC113.8010W
SBJr099/39.2SOLBERG VOR/DME112.9010W

 
NDB name  Hdg/Dist  Freq  Var  ID
CHATHAM123/26.525413WCAT -.-. .- -
LAKEHURST043/38.839611WNEL -. . .-..

Heliport Services

Fuel available: A J5
FUEL: J5.
Bottled oxygen: NONE
Bulk oxygen: NONE

Runway Information

Helipad H1

Dimensions: 70 x 70 ft. / 21 x 21 m
Surface: concrete, in fair condition
Runway edge lights: PERI
Runway edge markings: WHITE PAINTED MALTESE CROSS.
Latitude: 40-35.421333N
Longitude: 073-52.909167W
Elevation: 6.0 ft.
Traffic pattern: leftleft
Markings: NSTD

Heliport Ownership and Management from official FAA records

Ownership: Publicly-owned
Owner: CITY OF NEW YORK-NYPD
1 POLICE PLAZA
NEW YORK, NY 10038
Phone 718-692-1220
Manager: COMMANDING OFFICER-AVIATION UNIT
FLOYD BENNETT FIELD
BROOKLYN, NY 11234-7097
Phone 718-692-1220

Heliport Operational Statistics

Aircraft based on the field: 7
Helicopters: 7
    

Additional Remarks

A52-H1 RY H1 OBST LGT ON CG BLDG LCTD E SIDE FLD ADJ TO WATER ONLY, ABD BLDG ON FLD UNLGTD.
FOR CD CTC NEW YORK APCH AT 516-683-2962.
OFFL BUS ONLY. RESCUE MISSION ACFT EXEMPTED.
HEAVY CONENTRATION OF LARGE BIRDS INVOF HELIPAD.
OBST LGT ON CG BLDG LCTD ON E SIDE OF FIELD ADJ TO WATER ONLY.
ABANDONED BLDGS ON FLD UNLGTD.
REMOTE CONTROL AIRCRAFT ARE FLOWN SR-SS AT NORTHERN EDGE OF HELIPORT.

Instrument Procedures

There are no published instrument procedures at NY22.

Some nearby airports with instrument procedures:

KJFK - John F Kennedy International Airport (6 nm NE)
KJRB - Downtown Manhattan/Wall Street Heliport (9 nm NW)
6N5 - East 34th Street Heliport (10 nm NW)
KLGA - LaGuardia Airport (11 nm N)
KJRA - West 30th St Heliport (11 nm NW)
KEWR - Newark Liberty International Airport (14 nm NW)
KLDJ - Linden Airport (17 nm W)
KTEB - Teterboro Airport (18 nm NW)
 
Loc | Ops | Rwys | IFR | FBO | Links
Com | Nav | Svcs | Stats | Notes
Area around NY22 (NYPD Air Operations Heliport (Floyd Bennett Field))
 
Road maps at: MapQuest Bing Google
 
Aerial photo
WARNING: Photo may not be current or correct
Aerial photo of NY22 (NYPD Air Operations Heliport (Floyd Bennett Field))
Photo courtesy of AirNav, LLC
Photo taken 18-Oct-2013
looking north.

Do you have a better or more recent aerial photo of NYPD Air Operations Heliport (Floyd Bennett Field) that you would like to share? If so, please send us your photo.

 
Sectional chart

 
Airport distance calculator
Flying to NYPD Air Operations Heliport (Floyd Bennett Field)? Find the distance to fly.

From to NY22

Sunrise and sunset
Times for 01-Dec-2022
 Local
(UTC-5)
 Zulu
(UTC)
Morning civil twilight06:3111:31
Sunrise07:0112:01
Sunset16:2821:28
Evening civil twilight16:5921:59

Current date and time
Zulu (UTC)  01-Dec-2022 21:14:28
Local (UTC-5)  01-Dec-2022 16:14:28
 
METAR
KJFK 
6nm NE 
012051Z 28015KT 10SM FEW055 06/M07 A3033 RMK AO2 PK WND 30026/1953 SLP270 T00611067 53026
KJRB 
9nm NW 
012056Z AUTO VRB06G16KT 10SM CLR A3034 RMK AO2 PK WND 28030/2054 SLPNO P0001 60001 53024 FZRANO $
KLGA 
12nm N 
012051Z 29014G26KT 10SM FEW055 07/M07 A3032 RMK AO2 PK WND 30027/1952 SLP267 6//// T00671072 53024
KNYC 
12nm N 
012051Z AUTO 28010G24KT 10SM CLR 06/M08 A3034 RMK AO2 SLP266 T00561078 53023 $
KEWR 
14nm NW 
012051Z 28017G23KT 10SM FEW055 07/M07 A3033 RMK AO2 PK WND 29027/1952 SLP270 T00671072 53023
KLDJ 
17nm W 
012055Z AUTO 30013G21KT 10SM CLR 05/M07 A3034 RMK AO2 T00511071
KTEB 
18nm NW 
012051Z 29013G23KT 10SM CLR 06/M07 A3032 RMK AO2 SLP266 T00561072 53025
TAF
KJFK 
6nm NE 
011739Z 0118/0224 30020G28KT P6SM SCT060 FM012200 30017G24KT P6SM FEW060 FM020100 30012KT P6SM SKC FM020500 30008KT P6SM SKC FM020800 30005KT P6SM FEW250 FM021300 VRB04KT P6SM FEW250 FM021500 20008KT P6SM FEW250 FM021800 19010KT P6SM FEW250
KLGA 
12nm N 
011739Z 0118/0224 29020G28KT P6SM SCT060 FM012200 29016G23KT P6SM SKC FM020200 30011KT P6SM SKC FM020500 30008KT P6SM SKC FM020900 30005KT P6SM FEW250 FM021300 VRB04KT P6SM FEW250 FM021500 21006KT P6SM FEW250 FM021800 20009KT P6SM FEW250
KEWR 
14nm NW 
011739Z 0118/0224 29018G25KT P6SM SCT060 FM012200 29014G21KT P6SM SKC FM020100 30010KT P6SM SKC FM020400 28005KT P6SM SKC FM021300 VRB04KT P6SM FEW250 FM021500 22006KT P6SM FEW250 FM021800 20008KT P6SM FEW250
KTEB 
18nm NW 
011739Z 0118/0224 30017G23KT P6SM SCT060 FM012200 30012G18KT P6SM SKC FM020000 30009KT P6SM SKC FM020200 30005KT P6SM SKC FM020800 VRB03KT P6SM FEW250 FM021600 22006KT P6SM FEW250 FM021800 19008KT P6SM FEW250
NOTAMs
Click for the latest NOTAMs
NOTAMs are issued by the DoD/FAA and will open in a separate window not controlled by AirNav.

 

 
 

Would you like to see your business listed on this page?

 If your business provides an interesting product or service to pilots, flight crews, aircraft, or users of the NYPD Air Operations Heliport (Floyd Bennett Field), you should consider listing it here.  To start the listing process, click on the button below
 
Add a business
 

Other Pages about NYPD Air Operations Heliport (Floyd Bennett Field)

aeroweb.brooklyn.cuny.edu/...
 
Update a link
 
Copyright © AirNav, LLC. All rights reserved. Privacy Policy  Contact